Overview Statistics Trail Chart Weather Telemetry Raw packets
 

This is the latest recevied weather packets stored in our database for station/object N5CSU. If no packets are shown the sender has not sent any weather packets the latest 10 day(s).

<< 48 49 50 51 52 53 54 >>
Time Temp. Humidity Pressure Rain* Wind** Luminosity Snow
1788292494 37.22° C 44% 1014.6 hPa 0 mm - 15 W/m² -
1788292189 37.22° C 42% 1014.7 hPa 0 mm - 17 W/m² -
1788291884 37.22° C 43% 1014.7 hPa 0 mm - 29 W/m² -
1788291580 37.78° C 42% 1014.7 hPa 0 mm - 35 W/m² -
1788291279 37.22° C 41% 1014.8 hPa 0 mm - 58 W/m² -
1788290978 37.22° C 43% 1014.9 hPa 0 mm - 50 W/m² -
1788290675 37.22° C 42% 1015.1 hPa 0 mm - 282 W/m² -
1788290366 37.22° C 42% 1015 hPa 0 mm - 129 W/m² -
1788290061 37.22° C 42% 1015.1 hPa 0 mm - 101 W/m² -
1788289757 37.22° C 43% 1015.2 hPa 0 mm - 207 W/m² -
1788289457 37.22° C 42% 1015.3 hPa 0 mm - 33 W/m² -
1788289155 37.22° C 43% 1015.3 hPa 0 mm - 217 W/m² -
1788288854 37.22° C 42% 1015.3 hPa 0 mm - 29 W/m² -
1788288549 37.22° C 41% 1015.5 hPa 0 mm - 163 W/m² -
1788288245 36.67° C 42% 1015.6 hPa 0 mm - 85 W/m² -
1788287945 37.22° C 40% 1015.6 hPa 0 mm - 38 W/m² -
1788287644 37.22° C 42% 1016 hPa 0 mm - 136 W/m² -
1788287340 36.11° C 45% 1016.1 hPa 0 mm - 76 W/m² -
1788287035 36.11° C 44% 1016 hPa 0 mm - 50 W/m² -
1788286730 36.67° C 44% 1016.3 hPa 0 mm - 270 W/m² -
1788286425 36.11° C 45% 1016.3 hPa 0 mm - 111 W/m² -
1788286124 36.67° C 44% 1016.4 hPa 0 mm - 164 W/m² -
1788285823 36.11° C 46% 1016.6 hPa 0 mm - 443 W/m² -
1788285522 35.56° C 47% 1016.7 hPa 0 mm - 545 W/m² -
1788285217 35° C 47% 1016.6 hPa 0 mm - 268 W/m² -

* Rain latest hour (hover to see other rain measurements)
** Current wind speed in m/s (hover to see current wind gust speed)